createdAt,value
2023-05-05T00:01:39.360Z,5.83
2023-05-05T00:04:42.646Z,5.93
2023-05-05T00:07:45.391Z,5.86
2023-05-05T00:10:50.613Z,5.80
2023-05-05T00:13:53.548Z,5.76
2023-05-05T00:16:56.558Z,5.77
2023-05-05T00:19:59.949Z,5.77
2023-05-05T00:23:03.154Z,5.73
2023-05-05T00:26:05.821Z,5.63
2023-05-05T00:29:08.857Z,5.73
2023-05-05T00:32:11.789Z,5.65
2023-05-05T00:35:15.923Z,5.65
2023-05-05T00:38:19.540Z,5.80
2023-05-05T00:41:23.134Z,5.78
2023-05-05T00:44:40.457Z,5.81
2023-05-05T00:48:04.904Z,5.74
2023-05-05T00:51:09.386Z,5.75
2023-05-05T00:54:12.297Z,5.71
2023-05-05T00:57:15.082Z,5.67
2023-05-05T01:00:18.220Z,5.59
2023-05-05T01:03:21.125Z,5.69
2023-05-05T01:06:52.875Z,5.67
2023-05-05T01:10:20.448Z,5.70
2023-05-05T01:13:52.290Z,5.66
2023-05-05T01:17:08.787Z,5.60
2023-05-05T01:20:33.234Z,5.57
2023-05-05T01:23:45.673Z,5.47
2023-05-05T01:27:34.275Z,5.58
2023-05-05T01:30:46.276Z,5.56
2023-05-05T01:33:54.736Z,5.53
2023-05-05T01:37:08.344Z,5.51
2023-05-05T01:40:13.705Z,5.54
2023-05-05T01:43:20.156Z,5.54
2023-05-05T01:46:24.864Z,5.50
2023-05-05T01:49:28.340Z,5.52
2023-05-05T01:52:32.420Z,5.49
2023-05-05T01:55:37.042Z,5.47
2023-05-05T01:58:42.380Z,5.53
2023-05-05T02:01:47.325Z,5.51
2023-05-05T02:04:53.150Z,5.41
2023-05-05T02:07:58.943Z,5.42
2023-05-05T02:11:02.242Z,5.46
2023-05-05T02:14:07.992Z,5.52
2023-05-05T02:17:12.743Z,5.44
2023-05-05T02:20:17.125Z,5.45
2023-05-05T02:23:20.612Z,5.44
2023-05-05T02:26:24.372Z,5.45
2023-05-05T02:29:34.209Z,5.46
2023-05-05T02:32:46.661Z,5.37
2023-05-05T02:35:53.468Z,5.24
2023-05-05T02:39:01.535Z,5.30
2023-05-05T02:42:09.208Z,5.24
2023-05-05T02:45:16.590Z,5.17
2023-05-05T02:48:21.162Z,5.12
2023-05-05T02:51:24.741Z,5.17
2023-05-05T02:54:28.402Z,5.18
2023-05-05T02:57:52.636Z,5.07
2023-05-05T03:01:07.376Z,4.97
2023-05-05T03:04:23.041Z,4.97
2023-05-05T03:07:30.943Z,4.94
2023-05-05T03:10:41.335Z,4.91
2023-05-05T03:13:48.404Z,4.87
2023-05-05T03:16:53.981Z,4.84
2023-05-05T03:19:57.573Z,4.95
2023-05-05T03:23:02.229Z,4.94
2023-05-05T03:26:05.158Z,4.94
2023-05-05T03:29:08.579Z,4.99
2023-05-05T03:32:13.671Z,4.95
2023-05-05T03:35:16.554Z,5.18
2023-05-05T03:38:19.851Z,5.16
2023-05-05T03:41:23.765Z,5.20
2023-05-05T03:44:27.242Z,5.21
2023-05-05T03:47:30.008Z,5.27
2023-05-05T03:50:33.109Z,5.26
2023-05-05T03:53:36.212Z,5.49
2023-05-05T03:56:40.456Z,5.60
2023-05-05T03:59:43.141Z,5.59
2023-05-05T04:02:46.236Z,5.72
2023-05-05T04:05:49.973Z,5.81
2023-05-05T04:08:52.809Z,5.84
2023-05-05T04:11:55.725Z,5.97
2023-05-05T04:14:59.038Z,6.11
2023-05-05T04:18:02.222Z,6.34
2023-05-05T04:21:05.085Z,6.64
2023-05-05T04:24:08.363Z,6.73
2023-05-05T04:27:11.001Z,6.86
2023-05-05T04:30:15.036Z,7.06
2023-05-05T04:33:17.775Z,7.22
2023-05-05T04:36:21.602Z,7.47
2023-05-05T04:39:24.560Z,7.91
2023-05-05T04:42:27.929Z,8.61
2023-05-05T04:45:30.747Z,9.40
2023-05-05T04:48:34.503Z,10.31
2023-05-05T04:51:41.532Z,11.26
2023-05-05T04:54:45.000Z,11.85
2023-05-05T04:57:47.600Z,12.29
2023-05-05T05:00:50.704Z,12.72
2023-05-05T05:03:54.982Z,13.21
2023-05-05T05:06:59.355Z,13.85
2023-05-05T05:10:02.804Z,14.69
2023-05-05T05:13:05.830Z,15.71
2023-05-05T05:16:08.533Z,16.69
2023-05-05T05:19:11.563Z,17.73
2023-05-05T05:22:14.994Z,18.43
2023-05-05T05:25:18.311Z,19.23
2023-05-05T05:28:22.953Z,19.90
2023-05-05T05:31:26.308Z,20.28
2023-05-05T05:34:30.107Z,20.88
2023-05-05T05:37:34.930Z,22.14
2023-05-05T05:40:38.300Z,22.70
2023-05-05T05:43:41.787Z,23.32
2023-05-05T05:46:44.783Z,24.10
2023-05-05T05:49:47.872Z,24.23
2023-05-05T05:52:51.076Z,24.01
2023-05-05T05:55:54.073Z,23.90
2023-05-05T05:58:56.941Z,24.53
2023-05-05T06:02:00.101Z,24.32
2023-05-05T06:05:03.917Z,24.74
2023-05-05T06:08:07.024Z,24.93
2023-05-05T06:11:10.700Z,25.43
2023-05-05T06:14:13.959Z,26.06
2023-05-05T06:17:16.999Z,26.54
2023-05-05T06:20:19.676Z,27.14
2023-05-05T06:23:22.780Z,27.59
2023-05-05T06:26:26.089Z,27.22
2023-05-05T06:29:29.218Z,25.94
2023-05-05T06:32:36.186Z,24.86
2023-05-05T06:35:39.264Z,26.60
2023-05-05T06:38:42.107Z,26.72
2023-05-05T06:41:45.152Z,27.24
2023-05-05T06:44:48.069Z,27.89
2023-05-05T06:47:51.118Z,28.22
2023-05-05T06:50:53.781Z,28.48
2023-05-05T06:53:56.965Z,27.29
2023-05-05T06:56:59.747Z,27.41
2023-05-05T07:00:11.340Z,28.87
2023-05-05T07:03:14.532Z,28.83
2023-05-05T07:06:17.729Z,29.90
2023-05-05T07:09:20.407Z,28.83
2023-05-05T07:12:23.423Z,29.00
2023-05-05T07:15:29.118Z,30.46
2023-05-05T07:18:33.228Z,29.34
2023-05-05T07:21:36.736Z,30.48
2023-05-05T07:24:39.736Z,30.73
2023-05-05T07:27:42.523Z,30.56
2023-05-05T07:30:45.496Z,29.31
2023-05-05T07:33:48.335Z,29.94
2023-05-05T07:36:51.421Z,30.64
2023-05-05T07:39:54.313Z,28.75
2023-05-05T07:42:58.610Z,29.89
2023-05-05T07:46:01.611Z,28.50
2023-05-05T07:49:04.658Z,29.60
2023-05-05T07:52:07.320Z,27.79
2023-05-05T07:55:10.617Z,28.07
2023-05-05T07:58:13.576Z,28.06
2023-05-05T08:01:16.707Z,27.87
2023-05-05T08:04:19.833Z,28.86
2023-05-05T08:07:23.120Z,29.73
2023-05-05T08:10:26.184Z,28.83
2023-05-05T08:13:30.416Z,29.55
2023-05-05T08:16:33.767Z,29.26
2023-05-05T08:19:36.623Z,30.30
2023-05-05T08:22:40.768Z,30.13
2023-05-05T08:25:43.881Z,28.94
2023-05-05T08:28:47.229Z,28.33
2023-05-05T08:31:49.983Z,28.37
2023-05-05T08:34:53.120Z,28.25
2023-05-05T08:37:58.142Z,28.37
2023-05-05T08:41:02.240Z,27.78
2023-05-05T08:44:05.311Z,28.59
2023-05-05T08:47:11.471Z,26.83
2023-05-05T08:50:14.267Z,28.82
2023-05-05T08:53:18.162Z,28.46
2023-05-05T08:56:24.818Z,29.71
2023-05-05T08:59:33.016Z,28.97
2023-05-05T09:02:37.196Z,25.84
2023-05-05T09:05:42.951Z,23.40
2023-05-05T09:08:47.096Z,22.61
2023-05-05T09:11:52.901Z,21.08
2023-05-05T09:14:57.896Z,21.12
2023-05-05T09:18:03.698Z,20.76
2023-05-05T09:21:21.382Z,20.61
2023-05-05T09:24:24.565Z,21.06
2023-05-05T09:27:27.406Z,20.37
2023-05-05T09:30:30.381Z,20.85
2023-05-05T09:33:33.025Z,20.70
2023-05-05T09:36:49.216Z,20.80
2023-05-05T09:39:55.816Z,21.11
2023-05-05T09:43:02.920Z,20.75
2023-05-05T09:46:07.821Z,21.13
2023-05-05T09:49:18.397Z,21.12
2023-05-05T09:52:21.481Z,21.37
2023-05-05T09:55:25.656Z,20.91
2023-05-05T09:58:30.879Z,20.81
2023-05-05T10:01:33.988Z,20.36
2023-05-05T10:04:37.101Z,20.71
2023-05-05T10:07:41.462Z,20.78
2023-05-05T10:10:52.063Z,20.89
2023-05-05T10:13:55.284Z,21.92
2023-05-05T10:17:00.910Z,21.86
2023-05-05T10:20:04.557Z,21.23
2023-05-05T10:23:10.486Z,20.96
2023-05-05T10:26:14.828Z,21.03
2023-05-05T10:29:30.294Z,20.57
2023-05-05T10:32:59.309Z,21.49
2023-05-05T10:36:07.768Z,21.44
2023-05-05T10:39:11.962Z,22.12
2023-05-05T10:42:17.394Z,21.52
2023-05-05T10:45:20.114Z,21.55
2023-05-05T10:48:32.740Z,22.04
2023-05-05T10:51:56.984Z,21.71
2023-05-05T10:55:01.329Z,22.09
2023-05-05T10:58:04.004Z,22.23
2023-05-05T11:01:07.947Z,22.27
2023-05-05T11:04:20.980Z,22.78
2023-05-05T11:07:24.550Z,22.74
2023-05-05T11:10:44.354Z,22.75
2023-05-05T11:13:47.660Z,22.38
2023-05-05T11:16:50.616Z,22.21
2023-05-05T11:19:53.697Z,21.96
2023-05-05T11:23:02.291Z,21.99
2023-05-05T11:26:05.267Z,21.74
2023-05-05T11:29:08.278Z,22.17
2023-05-05T11:32:15.863Z,22.36
2023-05-05T11:35:18.781Z,22.58
2023-05-05T11:39:06.579Z,22.36
2023-05-05T11:42:25.671Z,22.11
2023-05-05T11:45:29.702Z,21.86
2023-05-05T11:48:32.419Z,21.53
2023-05-05T11:51:35.808Z,21.62
2023-05-05T11:54:48.699Z,21.85
2023-05-05T11:57:52.214Z,21.66
2023-05-05T12:00:55.071Z,21.57
2023-05-05T12:03:59.150Z,21.69
2023-05-05T12:07:02.244Z,22.44
2023-05-05T12:10:07.002Z,22.65
2023-05-05T12:13:20.117Z,21.83
2023-05-05T12:16:23.416Z,22.00
2023-05-05T12:19:30.243Z,22.28
2023-05-05T12:22:33.349Z,22.18
2023-05-05T12:25:38.345Z,21.71
2023-05-05T12:28:46.566Z,21.89
2023-05-05T12:31:49.546Z,21.65
2023-05-05T12:34:57.610Z,21.91
2023-05-05T12:38:00.499Z,22.05
2023-05-05T12:41:03.674Z,22.33
2023-05-05T12:44:06.741Z,22.10
2023-05-05T12:47:11.144Z,21.98
2023-05-05T12:50:13.800Z,21.78
2023-05-05T12:53:24.145Z,21.93
2023-05-05T12:56:52.761Z,22.19
2023-05-05T12:59:56.673Z,22.23
2023-05-05T13:02:59.592Z,22.24
2023-05-05T13:06:18.304Z,22.28
2023-05-05T13:09:28.200Z,22.49
2023-05-05T13:12:31.355Z,22.14
2023-05-05T13:15:34.256Z,22.31
2023-05-05T13:18:47.500Z,21.97
2023-05-05T13:21:54.176Z,22.43
2023-05-05T13:24:57.249Z,22.25
2023-05-05T13:28:00.715Z,21.89
2023-05-05T13:31:03.705Z,21.86
2023-05-05T13:34:06.805Z,22.01
2023-05-05T13:37:09.871Z,22.00
2023-05-05T13:40:13.888Z,21.79
2023-05-05T13:43:16.848Z,21.84
2023-05-05T13:46:20.337Z,21.77
2023-05-05T13:49:23.736Z,21.89
2023-05-05T13:52:27.579Z,21.77
2023-05-05T13:55:31.283Z,21.60
2023-05-05T13:58:35.003Z,21.86
2023-05-05T14:01:39.698Z,21.82
2023-05-05T14:04:42.971Z,21.70
2023-05-05T14:07:46.261Z,21.99
2023-05-05T14:10:50.199Z,22.01
2023-05-05T14:13:54.965Z,21.87
2023-05-05T14:16:57.997Z,21.88
2023-05-05T14:20:00.875Z,21.75
2023-05-05T14:23:03.874Z,21.86
2023-05-05T14:26:06.653Z,22.00
2023-05-05T14:29:19.252Z,21.94
2023-05-05T14:32:23.166Z,21.86
2023-05-05T14:35:26.243Z,21.85
2023-05-05T14:38:28.923Z,21.78
2023-05-05T14:41:32.064Z,21.95
2023-05-05T14:44:34.668Z,21.95
2023-05-05T14:47:37.677Z,21.89
2023-05-05T14:50:42.331Z,21.94
2023-05-05T14:53:45.833Z,21.87
2023-05-05T14:56:48.510Z,21.70
2023-05-05T14:59:53.104Z,21.69
2023-05-05T15:02:56.120Z,21.87
2023-05-05T15:05:59.545Z,21.81
2023-05-05T15:09:02.221Z,21.57
2023-05-05T15:12:05.725Z,21.59
2023-05-05T15:15:08.946Z,21.57
2023-05-05T15:18:12.321Z,21.49
2023-05-05T15:21:14.966Z,21.41
2023-05-05T15:24:18.138Z,21.47
2023-05-05T15:27:20.888Z,21.53
2023-05-05T15:30:23.976Z,21.46
2023-05-05T15:33:26.665Z,21.60
2023-05-05T15:36:29.739Z,21.68
2023-05-05T15:39:32.453Z,21.63
2023-05-05T15:42:35.435Z,21.71
2023-05-05T15:45:41.179Z,21.77
2023-05-05T15:48:44.333Z,21.80
2023-05-05T15:51:48.405Z,21.76
2023-05-05T15:54:51.384Z,21.64
2023-05-05T15:57:54.920Z,21.27
2023-05-05T16:00:57.988Z,21.25
2023-05-05T16:04:01.297Z,21.19
2023-05-05T16:07:04.018Z,21.07
2023-05-05T16:10:08.292Z,20.91
2023-05-05T16:13:11.030Z,20.74
2023-05-05T16:16:13.944Z,20.76
2023-05-05T16:19:16.624Z,20.67
2023-05-05T16:22:21.019Z,20.53
2023-05-05T16:25:23.768Z,20.51
2023-05-05T16:28:26.879Z,20.40
2023-05-05T16:31:30.003Z,20.33
2023-05-05T16:34:33.142Z,20.25
2023-05-05T16:37:35.871Z,20.12
2023-05-05T16:40:39.040Z,20.06
2023-05-05T16:43:41.940Z,19.96
2023-05-05T16:46:45.042Z,19.87
2023-05-05T16:49:48.002Z,19.80
2023-05-05T16:52:51.464Z,19.65
2023-05-05T16:55:54.256Z,19.51
2023-05-05T16:58:57.191Z,19.23
2023-05-05T17:02:00.179Z,19.07
2023-05-05T17:05:03.618Z,18.93
2023-05-05T17:08:06.977Z,18.70
2023-05-05T17:11:11.870Z,18.44
2023-05-05T17:14:14.765Z,18.14
2023-05-05T17:17:17.780Z,17.99
2023-05-05T17:20:20.600Z,17.71
2023-05-05T17:23:23.743Z,17.60
2023-05-05T17:26:26.443Z,17.39
2023-05-05T17:29:29.404Z,17.21
2023-05-05T17:32:32.126Z,16.98
2023-05-05T17:35:35.213Z,16.85
2023-05-05T17:38:37.971Z,16.62
2023-05-05T17:41:42.445Z,16.38
2023-05-05T17:44:46.956Z,16.09
2023-05-05T17:47:50.698Z,15.92
2023-05-05T17:50:53.447Z,15.69
2023-05-05T17:53:57.146Z,15.45
2023-05-05T17:56:59.849Z,15.21
2023-05-05T18:00:04.679Z,15.01
2023-05-05T18:03:16.474Z,14.78
2023-05-05T18:06:19.719Z,14.56
2023-05-05T18:09:23.472Z,14.36
2023-05-05T18:12:26.942Z,14.15
2023-05-05T18:15:32.355Z,13.95
2023-05-05T18:18:35.946Z,13.74
2023-05-05T18:21:39.122Z,13.50
2023-05-05T18:24:42.554Z,13.37
2023-05-05T18:27:45.864Z,13.21
2023-05-05T18:30:49.011Z,13.05
2023-05-05T18:33:51.767Z,12.83
2023-05-05T18:36:55.364Z,12.73
2023-05-05T18:39:58.179Z,12.59
2023-05-05T18:43:01.294Z,12.44
2023-05-05T18:46:03.969Z,12.32
2023-05-05T18:49:07.508Z,12.14
2023-05-05T18:52:10.263Z,12.07
2023-05-05T18:55:13.376Z,11.95
2023-05-05T18:58:16.861Z,11.77
2023-05-05T19:01:20.431Z,11.65
2023-05-05T19:04:30.823Z,11.56
2023-05-05T19:07:35.754Z,11.51
2023-05-05T19:10:38.609Z,11.34
2023-05-05T19:13:42.488Z,11.32
2023-05-05T19:16:45.726Z,11.20
2023-05-05T19:19:48.917Z,11.14
2023-05-05T19:22:52.009Z,11.08
2023-05-05T19:25:55.031Z,10.94
2023-05-05T19:28:57.744Z,10.96
2023-05-05T19:32:00.826Z,10.81
2023-05-05T19:35:03.695Z,10.72
2023-05-05T19:38:06.638Z,10.71
2023-05-05T19:41:09.322Z,10.65
2023-05-05T19:44:12.313Z,10.60
2023-05-05T19:47:15.096Z,10.55
2023-05-05T19:50:18.272Z,10.47
2023-05-05T19:53:21.053Z,10.45
2023-05-05T19:56:24.085Z,10.36
2023-05-05T19:59:26.836Z,10.31
2023-05-05T20:02:29.919Z,10.24
2023-05-05T20:05:32.944Z,10.20
2023-05-05T20:08:35.986Z,10.09
2023-05-05T20:11:41.143Z,10.10
2023-05-05T20:14:44.241Z,10.08
2023-05-05T20:17:48.158Z,10.03
2023-05-05T20:20:51.340Z,9.91
2023-05-05T20:23:54.662Z,9.90
2023-05-05T20:26:57.412Z,9.84
2023-05-05T20:30:00.444Z,9.79
2023-05-05T20:33:03.256Z,9.74
2023-05-05T20:36:07.373Z,9.69
2023-05-05T20:39:15.663Z,9.65
2023-05-05T20:42:18.961Z,9.60
2023-05-05T20:45:21.925Z,9.51
2023-05-05T20:48:24.899Z,9.56
2023-05-05T20:51:31.555Z,9.56
2023-05-05T20:54:35.090Z,9.50
2023-05-05T20:57:37.782Z,9.38
2023-05-05T21:00:40.825Z,9.38
2023-05-05T21:03:43.837Z,9.33
2023-05-05T21:06:46.871Z,9.29
2023-05-05T21:09:49.832Z,9.26
2023-05-05T21:12:53.058Z,9.24
2023-05-05T21:15:55.973Z,9.20
2023-05-05T21:18:59.237Z,9.09
2023-05-05T21:22:02.283Z,9.15
2023-05-05T21:25:17.308Z,9.03
2023-05-05T21:28:20.008Z,9.06
2023-05-05T21:31:23.487Z,9.02
2023-05-05T21:34:26.796Z,8.92
2023-05-05T21:37:29.841Z,8.92
2023-05-05T21:40:32.613Z,8.90
2023-05-05T21:43:35.568Z,8.82
2023-05-05T21:46:38.229Z,8.82
2023-05-05T21:49:41.381Z,8.78
2023-05-05T21:52:44.500Z,8.73
2023-05-05T21:55:47.965Z,8.81
2023-05-05T21:58:50.712Z,8.72
2023-05-05T22:01:53.940Z,8.66
2023-05-05T22:04:57.079Z,8.60
2023-05-05T22:07:59.755Z,8.57
2023-05-05T22:11:02.788Z,8.53
2023-05-05T22:14:06.079Z,8.55
2023-05-05T22:17:09.108Z,8.41
2023-05-05T22:20:12.240Z,8.40
2023-05-05T22:23:16.188Z,8.30
2023-05-05T22:26:18.840Z,8.36
2023-05-05T22:29:21.883Z,8.29
2023-05-05T22:32:24.615Z,8.28
2023-05-05T22:35:28.066Z,8.18
2023-05-05T22:38:30.815Z,8.21
2023-05-05T22:41:34.303Z,8.17
2023-05-05T22:44:38.520Z,8.09
2023-05-05T22:47:41.667Z,8.05
2023-05-05T22:50:44.402Z,8.11
2023-05-05T22:53:47.716Z,8.08
2023-05-05T22:56:50.370Z,8.04
2023-05-05T22:59:53.405Z,8.01
2023-05-05T23:02:56.181Z,7.99
2023-05-05T23:05:59.104Z,7.96
2023-05-05T23:09:02.144Z,7.97
2023-05-05T23:12:06.173Z,7.97
2023-05-05T23:15:10.042Z,7.90
2023-05-05T23:18:13.395Z,7.87
2023-05-05T23:21:16.229Z,7.82
2023-05-05T23:24:19.303Z,7.85
2023-05-05T23:27:23.074Z,7.84
2023-05-05T23:30:26.051Z,7.82
2023-05-05T23:33:29.347Z,7.80
2023-05-05T23:36:32.408Z,7.75
2023-05-05T23:39:35.072Z,7.72
2023-05-05T23:42:38.080Z,7.73
2023-05-05T23:45:40.656Z,7.65
2023-05-05T23:48:43.630Z,7.71
2023-05-05T23:51:46.382Z,7.73
2023-05-05T23:54:49.520Z,7.69
2023-05-05T23:57:53.160Z,7.66
